createdAt,value
2022-07-26T00:00:16.705Z,1.60
2022-07-26T00:02:48.200Z,1.57
2022-07-26T00:05:21.164Z,1.20
2022-07-26T00:07:50.801Z,1.37
2022-07-26T00:10:20.460Z,1.20
2022-07-26T00:12:50.178Z,1.07
2022-07-26T00:15:19.873Z,1.23
2022-07-26T00:17:49.564Z,1.30
2022-07-26T00:20:21.874Z,1.20
2022-07-26T00:22:57.422Z,1.40
2022-07-26T00:25:27.076Z,1.20
2022-07-26T00:27:56.754Z,1.23
2022-07-26T00:30:27.363Z,1.60
2022-07-26T00:32:56.998Z,1.63
2022-07-26T00:35:29.322Z,1.87
2022-07-26T00:37:59.077Z,1.40
2022-07-26T00:40:28.831Z,1.30
2022-07-26T00:42:58.489Z,1.37
2022-07-26T00:45:28.389Z,1.30
2022-07-26T00:47:58.205Z,1.13
2022-07-26T00:50:30.468Z,1.30
2022-07-26T00:53:00.332Z,1.43
2022-07-26T00:55:30.542Z,1.63
2022-07-26T00:58:01.318Z,0.97
2022-07-26T01:00:31.545Z,1.63
2022-07-26T01:03:03.031Z,0.90
2022-07-26T01:05:35.663Z,1.50
2022-07-26T01:08:06.109Z,1.40
2022-07-26T01:10:35.799Z,1.27
2022-07-26T01:13:05.479Z,1.30
2022-07-26T01:15:35.189Z,1.50
2022-07-26T01:18:04.830Z,1.10
2022-07-26T01:20:37.100Z,1.40
2022-07-26T01:23:10.447Z,1.33
2022-07-26T01:25:43.439Z,1.83
2022-07-26T01:28:20.175Z,1.90
2022-07-26T01:30:50.722Z,1.80
2022-07-26T01:33:20.479Z,1.37
2022-07-26T01:35:50.823Z,1.50
2022-07-26T01:38:23.105Z,1.83
2022-07-26T01:40:52.790Z,1.10
2022-07-26T01:43:22.533Z,1.93
2022-07-26T01:45:52.338Z,1.40
2022-07-26T01:48:22.074Z,1.40
2022-07-26T01:50:51.769Z,1.50
2022-07-26T01:53:24.092Z,1.70
2022-07-26T01:55:53.847Z,1.70
2022-07-26T01:58:24.868Z,2.13
2022-07-26T02:00:54.787Z,1.53
2022-07-26T02:03:24.430Z,1.70
2022-07-26T02:05:54.122Z,1.80
2022-07-26T02:08:26.385Z,2.00
2022-07-26T02:11:05.082Z,1.70
2022-07-26T02:13:36.544Z,1.90
2022-07-26T02:16:07.824Z,1.73
2022-07-26T02:18:40.548Z,1.60
2022-07-26T02:21:10.934Z,1.70
2022-07-26T02:23:43.245Z,1.30
2022-07-26T02:26:12.956Z,1.73
2022-07-26T02:28:42.713Z,1.40
2022-07-26T02:31:15.322Z,2.73
2022-07-26T02:33:45.488Z,2.47
2022-07-26T02:36:15.157Z,1.93
2022-07-26T02:38:47.477Z,1.83
2022-07-26T02:41:17.145Z,2.10
2022-07-26T02:43:46.896Z,1.73
2022-07-26T02:46:16.667Z,1.83
2022-07-26T02:48:46.466Z,1.83
2022-07-26T02:51:17.443Z,2.00
2022-07-26T02:53:49.707Z,1.70
2022-07-26T02:56:19.441Z,1.67
2022-07-26T02:58:49.140Z,1.80
2022-07-26T03:01:18.847Z,1.73
2022-07-26T03:03:50.890Z,2.10
2022-07-26T03:06:21.697Z,1.50
2022-07-26T03:08:53.924Z,1.93
2022-07-26T03:11:23.593Z,3.13
2022-07-26T03:13:53.292Z,1.83
2022-07-26T03:16:27.475Z,2.03
2022-07-26T03:18:59.322Z,2.33
2022-07-26T03:21:29.101Z,2.00
2022-07-26T03:24:01.398Z,2.03
2022-07-26T03:26:31.648Z,2.17
2022-07-26T03:29:01.334Z,3.40
2022-07-26T03:31:31.138Z,1.90
2022-07-26T03:34:03.235Z,2.40
2022-07-26T03:36:33.220Z,2.83
2022-07-26T03:39:05.962Z,2.20
2022-07-26T03:41:35.615Z,2.40
2022-07-26T03:44:05.833Z,2.63
2022-07-26T03:46:35.843Z,2.07
2022-07-26T03:49:05.758Z,3.10
2022-07-26T03:51:36.023Z,3.07
2022-07-26T03:54:09.170Z,2.30
2022-07-26T03:56:36.794Z,1.73
2022-07-26T03:59:08.302Z,2.60
2022-07-26T04:01:41.849Z,2.83
2022-07-26T04:04:12.451Z,2.43
2022-07-26T04:06:43.124Z,2.60
2022-07-26T04:09:16.174Z,2.27
2022-07-26T04:11:47.998Z,2.87
2022-07-26T04:14:17.674Z,2.40
2022-07-26T04:16:47.499Z,2.80
2022-07-26T04:19:17.234Z,2.57
2022-07-26T04:21:46.915Z,2.70
2022-07-26T04:24:19.152Z,2.70
2022-07-26T04:26:54.892Z,2.13
2022-07-26T04:29:24.573Z,2.77
2022-07-26T04:31:54.293Z,2.80
2022-07-26T04:34:23.997Z,2.97
2022-07-26T04:36:53.683Z,2.60
2022-07-26T04:39:25.977Z,3.00
2022-07-26T04:41:55.665Z,2.50
2022-07-26T04:44:25.293Z,2.10
2022-07-26T04:46:55.049Z,3.33
2022-07-26T04:49:24.777Z,2.20
2022-07-26T04:51:59.042Z,2.53
2022-07-26T04:54:31.710Z,2.13
2022-07-26T04:57:01.425Z,2.87
2022-07-26T04:59:32.603Z,2.60
2022-07-26T05:02:02.715Z,2.90
2022-07-26T05:04:32.562Z,2.70
2022-07-26T05:07:02.588Z,3.20
2022-07-26T05:09:35.842Z,2.33
2022-07-26T05:12:05.993Z,2.80
2022-07-26T05:14:37.496Z,2.70
2022-07-26T05:17:09.034Z,2.50
2022-07-26T05:19:44.801Z,3.60
2022-07-26T05:22:17.318Z,2.37
2022-07-26T05:24:49.869Z,2.17
2022-07-26T05:27:19.619Z,2.70
2022-07-26T05:29:52.783Z,2.93
2022-07-26T05:32:22.588Z,3.43
2022-07-26T05:34:52.409Z,3.83
2022-07-26T05:37:22.139Z,2.90
2022-07-26T05:39:55.473Z,1.93
2022-07-26T05:42:26.858Z,2.90
2022-07-26T05:44:56.559Z,2.27
2022-07-26T05:47:26.421Z,2.97
2022-07-26T05:49:59.813Z,4.17
2022-07-26T05:52:29.585Z,3.23
2022-07-26T05:55:02.083Z,2.60
2022-07-26T05:57:32.916Z,2.20
2022-07-26T06:00:03.018Z,2.70
2022-07-26T06:02:41.954Z,2.77
2022-07-26T06:05:12.994Z,3.60
2022-07-26T06:07:42.677Z,3.23
2022-07-26T06:10:15.782Z,2.60
2022-07-26T06:12:45.476Z,3.63
2022-07-26T06:15:17.973Z,3.57
2022-07-26T06:17:47.668Z,2.93
2022-07-26T06:20:17.342Z,3.60
2022-07-26T06:22:47.100Z,3.57
2022-07-26T06:25:20.585Z,3.20
2022-07-26T06:27:50.335Z,2.77
2022-07-26T06:30:20.229Z,3.27
2022-07-26T06:32:50.973Z,3.17
2022-07-26T06:35:20.778Z,3.97
2022-07-26T06:37:50.439Z,3.20
2022-07-26T06:40:25.004Z,2.93
2022-07-26T06:42:58.048Z,3.43
2022-07-26T06:45:31.790Z,2.50
2022-07-26T06:48:01.666Z,3.53
2022-07-26T06:50:31.575Z,3.30
2022-07-26T06:53:01.427Z,3.20
2022-07-26T06:55:33.763Z,3.63
2022-07-26T06:58:03.576Z,3.63
2022-07-26T07:00:34.486Z,2.90
2022-07-26T07:03:04.261Z,4.50
2022-07-26T07:05:34.009Z,3.00
2022-07-26T07:08:04.827Z,3.50
2022-07-26T07:10:39.574Z,3.33
2022-07-26T07:13:10.964Z,4.13
2022-07-26T07:15:40.737Z,2.77
2022-07-26T07:18:10.565Z,3.27
2022-07-26T07:20:41.080Z,3.10
2022-07-26T07:23:10.838Z,3.00
2022-07-26T07:25:46.400Z,3.13
2022-07-26T07:28:18.967Z,3.17
2022-07-26T07:30:50.222Z,3.23
2022-07-26T07:33:22.840Z,2.80
2022-07-26T07:35:53.904Z,2.93
2022-07-26T07:38:23.794Z,2.80
2022-07-26T07:40:56.902Z,2.93
2022-07-26T07:43:26.735Z,2.70
2022-07-26T07:45:57.774Z,3.07
2022-07-26T07:48:27.599Z,2.47
2022-07-26T07:50:58.387Z,2.67
2022-07-26T07:53:28.384Z,2.10
2022-07-26T07:56:03.544Z,2.80
2022-07-26T07:58:33.282Z,2.40
2022-07-26T08:01:02.997Z,2.63
2022-07-26T08:03:38.274Z,3.17
2022-07-26T08:06:11.810Z,2.57
2022-07-26T08:08:41.539Z,2.20
2022-07-26T08:11:15.308Z,2.53
2022-07-26T08:13:48.845Z,2.87
2022-07-26T08:16:18.565Z,2.93
2022-07-26T08:18:57.663Z,2.27
2022-07-26T08:21:29.128Z,2.30
2022-07-26T08:23:59.512Z,2.67
2022-07-26T08:26:32.947Z,2.57
2022-07-26T08:29:02.762Z,3.00
2022-07-26T08:31:33.589Z,3.07
2022-07-26T08:34:03.391Z,2.73
2022-07-26T08:36:33.338Z,2.17
2022-07-26T08:39:03.626Z,1.60
2022-07-26T08:41:36.580Z,1.63
2022-07-26T08:44:11.427Z,1.70
2022-07-26T08:46:44.178Z,2.80
2022-07-26T08:49:15.353Z,2.30
2022-07-26T08:51:46.653Z,2.20
2022-07-26T08:54:18.281Z,1.90
2022-07-26T08:56:56.187Z,1.63
2022-07-26T08:59:26.994Z,1.80
2022-07-26T09:01:59.221Z,1.83
2022-07-26T09:04:34.049Z,1.87
2022-07-26T09:07:08.674Z,1.70
2022-07-26T09:09:41.411Z,1.67
2022-07-26T09:12:22.411Z,2.03
2022-07-26T09:14:53.236Z,2.27
2022-07-26T09:17:25.605Z,1.40
2022-07-26T09:20:09.575Z,2.10
2022-07-26T09:22:41.446Z,2.90
2022-07-26T09:25:24.047Z,1.83
2022-07-26T09:27:56.862Z,1.93
2022-07-26T09:30:26.649Z,2.77
2022-07-26T09:33:02.211Z,1.73
2022-07-26T09:35:51.205Z,1.63
2022-07-26T09:38:22.120Z,2.03
2022-07-26T09:40:55.442Z,2.03
2022-07-26T09:43:38.764Z,1.90
2022-07-26T09:46:11.008Z,2.60
2022-07-26T09:49:08.030Z,1.60
2022-07-26T09:51:38.841Z,1.83
2022-07-26T09:54:09.182Z,2.50
2022-07-26T09:56:47.137Z,2.20
2022-07-26T09:59:21.687Z,2.20
2022-07-26T10:01:52.964Z,2.20
2022-07-26T10:04:23.124Z,1.60
2022-07-26T10:06:53.549Z,1.30
2022-07-26T10:09:25.690Z,2.23
2022-07-26T10:11:59.373Z,1.60
2022-07-26T10:14:51.320Z,1.50
2022-07-26T10:17:43.213Z,1.17
2022-07-26T10:20:44.829Z,1.30
2022-07-26T10:23:37.624Z,1.33
2022-07-26T10:26:09.877Z,1.67
2022-07-26T10:28:43.278Z,1.53
2022-07-26T10:31:33.431Z,1.60
2022-07-26T10:34:04.696Z,1.50
2022-07-26T10:36:39.342Z,1.00
2022-07-26T10:39:17.219Z,1.20
2022-07-26T10:41:50.026Z,1.20
2022-07-26T10:44:22.609Z,1.10
2022-07-26T10:47:18.612Z,1.57
2022-07-26T10:50:00.008Z,1.00
2022-07-26T10:52:32.187Z,1.17
2022-07-26T10:55:11.873Z,0.87
2022-07-26T10:57:44.958Z,0.80
2022-07-26T11:00:24.594Z,1.10
2022-07-26T11:03:02.866Z,1.00
2022-07-26T11:05:35.690Z,0.80
2022-07-26T11:08:11.177Z,1.00
2022-07-26T11:10:42.875Z,1.03
2022-07-26T11:13:17.318Z,0.87
2022-07-26T11:15:51.001Z,0.90
2022-07-26T11:18:28.169Z,1.10
2022-07-26T11:21:00.203Z,1.00
2022-07-26T11:23:35.490Z,1.20
2022-07-26T11:26:14.867Z,1.27
2022-07-26T11:28:59.419Z,1.23
2022-07-26T11:31:51.341Z,0.70
2022-07-26T11:34:35.649Z,0.83
2022-07-26T11:37:07.690Z,1.30
2022-07-26T11:39:38.906Z,0.87
2022-07-26T11:42:11.831Z,1.00
2022-07-26T11:44:45.697Z,0.90
2022-07-26T11:47:20.002Z,1.00
2022-07-26T11:50:12.580Z,0.90
2022-07-26T11:52:42.277Z,1.27
2022-07-26T11:55:13.034Z,0.97
2022-07-26T11:57:44.851Z,1.60
2022-07-26T12:00:20.890Z,1.30
2022-07-26T12:02:55.801Z,1.00
2022-07-26T12:05:28.890Z,1.10
2022-07-26T12:08:00.951Z,1.20
2022-07-26T12:10:30.956Z,1.17
2022-07-26T12:13:11.508Z,0.90
2022-07-26T12:15:51.983Z,0.80
2022-07-26T12:18:26.888Z,1.40
2022-07-26T12:21:06.720Z,0.80
2022-07-26T12:23:45.850Z,0.90
2022-07-26T12:26:26.339Z,1.30
2022-07-26T12:28:56.848Z,0.80
2022-07-26T12:31:31.132Z,0.77
2022-07-26T12:34:02.618Z,0.70
2022-07-26T12:36:36.473Z,1.00
2022-07-26T12:39:07.633Z,1.10
2022-07-26T12:41:39.610Z,0.90
2022-07-26T12:44:12.706Z,0.83
2022-07-26T12:46:44.956Z,0.70
2022-07-26T12:49:16.794Z,0.93
2022-07-26T12:51:50.080Z,0.90
2022-07-26T12:54:19.819Z,0.80
2022-07-26T12:56:49.617Z,1.20
2022-07-26T12:59:19.913Z,0.97
2022-07-26T13:01:49.714Z,0.97
2022-07-26T13:04:19.537Z,0.80
2022-07-26T13:06:51.842Z,0.90
2022-07-26T13:09:21.549Z,1.10
2022-07-26T13:11:52.330Z,1.07
2022-07-26T13:14:22.130Z,1.13
2022-07-26T13:16:53.149Z,1.07
2022-07-26T13:19:23.103Z,1.27
2022-07-26T13:21:55.462Z,1.37
2022-07-26T13:24:25.414Z,0.93
2022-07-26T13:26:57.430Z,1.20
2022-07-26T13:29:31.155Z,2.00
2022-07-26T13:32:02.031Z,1.67
2022-07-26T13:34:35.088Z,1.10
2022-07-26T13:37:08.408Z,1.23
2022-07-26T13:39:38.363Z,1.00
2022-07-26T13:42:10.014Z,1.10
2022-07-26T13:44:39.691Z,1.07
2022-07-26T13:47:09.660Z,1.30
2022-07-26T13:49:39.446Z,0.90
2022-07-26T13:52:16.623Z,1.50
2022-07-26T13:54:46.725Z,1.60
2022-07-26T13:57:16.450Z,1.13
2022-07-26T13:59:47.202Z,1.17
2022-07-26T14:02:18.074Z,1.10
2022-07-26T14:04:48.623Z,1.10
2022-07-26T14:07:20.952Z,1.73
2022-07-26T14:09:50.858Z,2.03
2022-07-26T14:12:20.573Z,1.23
2022-07-26T14:14:50.278Z,0.90
2022-07-26T14:17:19.987Z,0.80
2022-07-26T14:19:50.930Z,1.00
2022-07-26T14:22:25.644Z,1.10
2022-07-26T14:24:55.452Z,1.20
2022-07-26T14:27:26.317Z,1.17
2022-07-26T14:29:56.112Z,1.17
2022-07-26T14:32:26.215Z,1.23
2022-07-26T14:34:57.091Z,0.90
2022-07-26T14:37:44.016Z,0.83
2022-07-26T14:40:17.843Z,1.40
2022-07-26T14:42:49.091Z,1.60
2022-07-26T14:45:19.496Z,1.00
2022-07-26T14:47:49.388Z,1.13
2022-07-26T14:50:22.894Z,1.20
2022-07-26T14:52:56.367Z,1.17
2022-07-26T14:55:26.147Z,1.40
2022-07-26T14:57:55.911Z,1.20
2022-07-26T15:00:25.645Z,1.30
2022-07-26T15:02:56.520Z,1.00
2022-07-26T15:05:27.917Z,1.80
2022-07-26T15:08:05.520Z,1.10
2022-07-26T15:10:35.862Z,1.47
2022-07-26T15:13:09.579Z,1.00
2022-07-26T15:15:40.395Z,1.37
2022-07-26T15:18:10.354Z,1.40
2022-07-26T15:20:41.826Z,1.40
2022-07-26T15:23:15.339Z,1.60
2022-07-26T15:25:45.278Z,2.30
2022-07-26T15:28:15.041Z,1.57
2022-07-26T15:30:45.204Z,1.47
2022-07-26T15:33:15.209Z,2.00
2022-07-26T15:35:45.937Z,1.90
2022-07-26T15:38:18.337Z,1.80
2022-07-26T15:40:48.075Z,1.70
2022-07-26T15:43:23.906Z,1.60
2022-07-26T15:46:13.611Z,1.20
2022-07-26T15:48:45.696Z,1.60
2022-07-26T15:51:17.257Z,1.97
2022-07-26T15:53:49.605Z,1.87
2022-07-26T15:56:20.442Z,2.00
2022-07-26T15:58:51.219Z,1.47
2022-07-26T16:01:22.039Z,1.50
2022-07-26T16:03:51.853Z,2.10
2022-07-26T16:06:23.990Z,1.67
2022-07-26T16:09:16.076Z,3.83
2022-07-26T16:11:47.442Z,2.00
2022-07-26T16:14:17.251Z,1.80
2022-07-26T16:16:47.561Z,1.57
2022-07-26T16:19:17.358Z,1.63
2022-07-26T16:21:48.111Z,1.53
2022-07-26T16:24:21.538Z,1.70
2022-07-26T16:26:52.243Z,1.77
2022-07-26T16:29:21.966Z,1.37
2022-07-26T16:31:54.645Z,1.50
2022-07-26T16:34:24.690Z,2.00
2022-07-26T16:36:54.688Z,1.97
2022-07-26T16:39:27.009Z,1.57
2022-07-26T16:41:56.767Z,1.30
2022-07-26T16:44:26.794Z,2.17
2022-07-26T16:46:57.406Z,1.80
2022-07-26T16:49:27.264Z,1.80
2022-07-26T16:51:59.145Z,1.90
2022-07-26T16:54:32.958Z,1.90
2022-07-26T16:57:04.529Z,2.13
2022-07-26T16:59:35.276Z,2.53
2022-07-26T17:02:05.278Z,1.70
2022-07-26T17:04:36.130Z,2.27
2022-07-26T17:07:24.478Z,1.97
2022-07-26T17:09:58.294Z,1.80
2022-07-26T17:12:28.011Z,2.03
2022-07-26T17:14:58.125Z,2.07
2022-07-26T17:17:28.949Z,2.17
2022-07-26T17:19:59.730Z,1.77
2022-07-26T17:22:29.510Z,1.93
2022-07-26T17:25:01.876Z,1.80
2022-07-26T17:27:31.576Z,1.87
2022-07-26T17:30:06.481Z,1.40
2022-07-26T17:32:38.142Z,2.30
2022-07-26T17:35:09.276Z,2.97
2022-07-26T17:37:40.034Z,2.10
2022-07-26T17:40:14.350Z,2.70
2022-07-26T17:42:46.136Z,1.80
2022-07-26T17:45:15.941Z,2.43
2022-07-26T17:47:47.000Z,1.73
2022-07-26T17:50:35.891Z,2.40
2022-07-26T17:53:06.425Z,1.70
2022-07-26T17:55:39.778Z,1.10
2022-07-26T17:58:09.545Z,1.90
2022-07-26T18:00:39.498Z,2.00
2022-07-26T18:03:10.291Z,1.80
2022-07-26T18:05:41.526Z,1.80
2022-07-26T18:08:11.439Z,2.40
2022-07-26T18:10:48.955Z,1.47
2022-07-26T18:13:20.550Z,2.00
2022-07-26T18:15:50.489Z,1.57
2022-07-26T18:18:22.096Z,3.40
2022-07-26T18:20:52.540Z,1.37
2022-07-26T18:23:23.552Z,1.93
2022-07-26T18:25:58.058Z,2.20
2022-07-26T18:28:27.943Z,3.20
2022-07-26T18:30:58.782Z,1.50
2022-07-26T18:33:28.545Z,1.77
2022-07-26T18:36:02.468Z,1.50
2022-07-26T18:38:33.243Z,1.90
2022-07-26T18:41:06.107Z,1.53
2022-07-26T18:43:36.290Z,1.93
2022-07-26T18:46:06.474Z,1.63
2022-07-26T18:48:37.546Z,1.57
2022-07-26T18:51:11.586Z,1.60
2022-07-26T18:53:42.344Z,1.23
2022-07-26T18:56:15.887Z,1.90
2022-07-26T18:58:45.761Z,1.20
2022-07-26T19:01:16.591Z,1.57
2022-07-26T19:03:46.560Z,1.60
2022-07-26T19:06:16.470Z,1.40
2022-07-26T19:08:46.376Z,1.40
2022-07-26T19:11:18.733Z,1.30
2022-07-26T19:13:49.569Z,1.17
2022-07-26T19:16:20.648Z,1.27
2022-07-26T19:18:55.341Z,2.00
2022-07-26T19:21:27.313Z,1.67
2022-07-26T19:23:57.095Z,2.80
2022-07-26T19:26:30.580Z,1.67
2022-07-26T19:29:00.392Z,1.30
2022-07-26T19:31:30.183Z,1.63
2022-07-26T19:34:00.193Z,1.40
2022-07-26T19:36:31.005Z,1.73
2022-07-26T19:39:01.343Z,2.13
2022-07-26T19:41:34.675Z,1.57
2022-07-26T19:44:05.532Z,1.97
2022-07-26T19:46:37.724Z,1.47
2022-07-26T19:49:07.553Z,1.20
2022-07-26T19:51:37.470Z,1.83
2022-07-26T19:54:07.527Z,1.20
2022-07-26T19:56:41.885Z,2.40
2022-07-26T19:59:11.889Z,1.53
2022-07-26T20:01:42.181Z,1.50
2022-07-26T20:04:13.259Z,1.40
2022-07-26T20:06:43.179Z,1.20
2022-07-26T20:09:13.331Z,1.30
2022-07-26T20:11:50.941Z,1.20
2022-07-26T20:14:21.865Z,2.13
2022-07-26T20:16:56.073Z,1.97
2022-07-26T20:19:28.327Z,1.40
2022-07-26T20:21:59.151Z,1.60
2022-07-26T20:24:29.378Z,1.30
2022-07-26T20:27:02.747Z,1.47
2022-07-26T20:29:32.726Z,2.07
2022-07-26T20:32:03.939Z,1.60
2022-07-26T20:34:35.202Z,1.77
2022-07-26T20:37:05.133Z,1.60
2022-07-26T20:39:36.092Z,1.20
2022-07-26T20:42:09.313Z,1.43
2022-07-26T20:44:44.580Z,1.60
2022-07-26T20:47:14.347Z,1.60
2022-07-26T20:49:45.167Z,1.37
2022-07-26T20:52:17.208Z,1.83
2022-07-26T20:54:49.127Z,1.67
2022-07-26T20:57:23.662Z,1.37
2022-07-26T20:59:53.625Z,1.13
2022-07-26T21:02:23.583Z,1.53
2022-07-26T21:04:53.845Z,1.80
2022-07-26T21:07:24.677Z,1.30
2022-07-26T21:10:15.605Z,1.77
2022-07-26T21:12:49.425Z,1.70
2022-07-26T21:15:19.339Z,1.20
2022-07-26T21:17:49.106Z,1.20
2022-07-26T21:20:23.186Z,1.50
2022-07-26T21:22:53.343Z,1.20
2022-07-26T21:25:24.435Z,1.30
2022-07-26T21:27:56.939Z,1.63
2022-07-26T21:30:26.708Z,1.20
2022-07-26T21:32:56.669Z,1.70
2022-07-26T21:35:26.597Z,1.27
2022-07-26T21:37:57.416Z,2.60
2022-07-26T21:40:28.472Z,1.47
2022-07-26T21:43:01.959Z,2.37
2022-07-26T21:45:32.844Z,1.63
2022-07-26T21:48:02.622Z,1.43
2022-07-26T21:50:32.877Z,1.27
2022-07-26T21:53:03.302Z,1.50
2022-07-26T21:55:33.003Z,1.80
2022-07-26T21:58:05.321Z,1.40
2022-07-26T22:00:36.715Z,1.60
2022-07-26T22:03:06.661Z,2.03
2022-07-26T22:05:42.610Z,1.63
2022-07-26T22:08:14.242Z,1.40
2022-07-26T22:10:46.243Z,1.90
2022-07-26T22:13:19.220Z,1.57
2022-07-26T22:15:49.852Z,1.30
2022-07-26T22:18:20.349Z,4.00
2022-07-26T22:20:51.311Z,1.53
2022-07-26T22:23:23.074Z,1.40
2022-07-26T22:25:52.810Z,1.80
2022-07-26T22:28:25.346Z,1.60
2022-07-26T22:30:55.169Z,1.33
2022-07-26T22:33:25.457Z,1.37
2022-07-26T22:35:55.428Z,1.90
2022-07-26T22:38:25.277Z,1.30
2022-07-26T22:40:55.137Z,1.90
2022-07-26T22:43:27.623Z,1.20
2022-07-26T22:45:57.430Z,1.30
2022-07-26T22:48:27.327Z,1.10
2022-07-26T22:50:57.190Z,1.30
2022-07-26T22:53:26.866Z,1.50
2022-07-26T22:55:56.718Z,1.70
2022-07-26T22:58:29.117Z,1.10
2022-07-26T23:01:00.558Z,1.10
2022-07-26T23:03:30.588Z,1.40
2022-07-26T23:06:02.982Z,1.10
2022-07-26T23:08:46.961Z,1.00
2022-07-26T23:11:17.353Z,2.33
2022-07-26T23:13:49.744Z,1.10
2022-07-26T23:16:19.510Z,1.50
2022-07-26T23:18:52.584Z,1.20
2022-07-26T23:21:22.438Z,1.20
2022-07-26T23:23:52.806Z,1.10
2022-07-26T23:26:22.590Z,1.13
2022-07-26T23:28:54.959Z,1.00
2022-07-26T23:31:25.018Z,1.40
2022-07-26T23:33:54.976Z,1.63
2022-07-26T23:36:26.635Z,1.33
2022-07-26T23:38:56.687Z,1.33
2022-07-26T23:41:27.135Z,1.10
2022-07-26T23:43:59.549Z,1.00
2022-07-26T23:46:29.493Z,1.50
2022-07-26T23:49:00.573Z,1.30
2022-07-26T23:51:30.374Z,1.10
2022-07-26T23:54:00.339Z,1.00
2022-07-26T23:56:30.106Z,1.93
2022-07-26T23:59:02.542Z,1.50
